createdAt,value
2018-08-04T00:01:25.396Z,82.80
2018-08-04T00:03:54.069Z,82.80
2018-08-04T00:06:22.542Z,82.90
2018-08-04T00:08:50.988Z,82.90
2018-08-04T00:11:19.436Z,82.90
2018-08-04T00:13:47.892Z,83.00
2018-08-04T00:18:44.499Z,82.80
2018-08-04T00:21:12.988Z,83.00
2018-08-04T00:23:41.456Z,83.20
2018-08-04T00:26:09.955Z,83.40
2018-08-04T00:28:38.413Z,83.70
2018-08-04T00:31:06.885Z,83.70
2018-08-04T00:33:35.333Z,83.70
2018-08-04T00:36:03.807Z,83.50
2018-08-04T00:38:32.257Z,83.40
2018-08-04T00:41:00.740Z,83.30
2018-08-04T00:43:29.181Z,83.40
2018-08-04T00:45:57.672Z,83.80
2018-08-04T00:48:26.112Z,84.00
2018-08-04T00:50:55.129Z,84.00
2018-08-04T00:53:23.549Z,84.10
2018-08-04T00:55:51.987Z,84.20
2018-08-04T00:58:20.438Z,84.20
2018-08-04T01:00:48.904Z,84.20
2018-08-04T01:03:17.576Z,84.10
2018-08-04T01:05:46.088Z,84.20
2018-08-04T01:08:14.597Z,84.20
2018-08-04T01:10:43.029Z,84.40
2018-08-04T01:13:11.497Z,84.20
2018-08-04T01:18:08.105Z,84.10
2018-08-04T01:20:36.633Z,84.00
2018-08-04T01:23:05.028Z,84.10
2018-08-04T01:25:33.540Z,84.30
2018-08-04T01:28:01.972Z,84.20
2018-08-04T01:30:30.424Z,84.00
2018-08-04T01:32:58.877Z,84.00
2018-08-04T01:35:27.410Z,84.10
2018-08-04T01:37:55.847Z,84.30
2018-08-04T01:40:24.301Z,84.70
2018-08-04T01:42:52.716Z,84.70
2018-08-04T01:45:21.184Z,84.80
2018-08-04T01:50:17.761Z,84.80
2018-08-04T01:55:14.333Z,85.10
2018-08-04T01:57:42.812Z,85.10
2018-08-04T02:00:11.456Z,85.10
2018-08-04T02:02:39.930Z,85.10
2018-08-04T02:05:08.382Z,85.10
2018-08-04T02:07:36.816Z,84.90
2018-08-04T02:10:05.349Z,85.10
2018-08-04T02:12:33.800Z,85.10
2018-08-04T02:15:02.209Z,85.10
2018-08-04T02:17:30.723Z,85.10
2018-08-04T02:19:59.160Z,84.80
2018-08-04T02:22:27.592Z,85.10
2018-08-04T02:24:56.112Z,85.10
2018-08-04T02:27:24.556Z,85.30
2018-08-04T02:29:53.152Z,85.40
2018-08-04T02:32:21.603Z,85.50
2018-08-04T02:34:50.042Z,85.30
2018-08-04T02:37:18.520Z,85.30
2018-08-04T02:39:46.933Z,84.90
2018-08-04T02:42:15.370Z,85.40
2018-08-04T02:44:43.804Z,85.50
2018-08-04T02:47:12.233Z,85.70
2018-08-04T02:49:40.667Z,85.80
2018-08-04T02:52:09.202Z,85.90
2018-08-04T02:54:37.609Z,85.90
2018-08-04T02:57:06.097Z,85.90
2018-08-04T02:59:34.544Z,86.00
2018-08-04T03:02:03.005Z,86.00
2018-08-04T03:04:31.479Z,86.00
2018-08-04T03:06:59.930Z,86.20
2018-08-04T03:09:29.067Z,86.30
2018-08-04T03:11:57.512Z,86.10
2018-08-04T03:14:25.921Z,86.30
2018-08-04T03:16:54.406Z,86.10
2018-08-04T03:19:23.238Z,85.90
2018-08-04T03:21:51.718Z,86.00
2018-08-04T03:24:20.156Z,86.00
2018-08-04T03:26:48.611Z,85.90
2018-08-04T03:29:17.016Z,85.90
2018-08-04T03:31:45.416Z,85.90
2018-08-04T03:34:13.877Z,86.10
2018-08-04T03:36:42.288Z,86.10
2018-08-04T03:39:11.706Z,86.10
2018-08-04T03:41:41.085Z,86.00
2018-08-04T03:44:09.591Z,86.00
2018-08-04T03:46:38.364Z,86.00
2018-08-04T03:49:06.832Z,86.10
2018-08-04T03:51:35.242Z,86.10
2018-08-04T03:54:03.697Z,86.20
2018-08-04T03:56:32.121Z,86.30
2018-08-04T03:59:00.548Z,86.20
2018-08-04T04:03:57.092Z,85.90
2018-08-04T04:06:25.526Z,85.90
2018-08-04T04:08:53.986Z,85.90
2018-08-04T04:11:22.463Z,86.00
2018-08-04T04:13:51.168Z,86.00
2018-08-04T04:16:19.589Z,85.90
2018-08-04T04:21:16.172Z,85.90
2018-08-04T04:23:44.640Z,86.10
2018-08-04T04:26:13.074Z,86.20
2018-08-04T04:28:41.513Z,86.20
2018-08-04T04:31:09.931Z,86.20
2018-08-04T04:36:06.542Z,85.80
2018-08-04T04:38:35.190Z,85.70
2018-08-04T04:43:31.746Z,85.40
2018-08-04T04:46:00.177Z,85.10
2018-08-04T04:48:28.710Z,85.10
2018-08-04T04:50:57.374Z,84.80
2018-08-04T04:53:25.837Z,85.10
2018-08-04T04:58:22.520Z,84.50
2018-08-04T05:00:50.945Z,84.40
2018-08-04T05:03:19.553Z,84.40
2018-08-04T05:05:47.988Z,84.70
2018-08-04T05:08:16.509Z,84.50
2018-08-04T05:10:44.953Z,84.40
2018-08-04T05:13:13.419Z,84.50
2018-08-04T05:15:41.869Z,84.50
2018-08-04T05:18:10.326Z,84.90
2018-08-04T05:20:38.776Z,85.20
2018-08-04T05:23:07.217Z,85.20
2018-08-04T05:25:35.636Z,85.50
2018-08-04T05:30:32.225Z,85.60
2018-08-04T05:33:00.643Z,85.60
2018-08-04T05:35:29.220Z,85.30
2018-08-04T05:37:57.644Z,85.20
2018-08-04T05:40:26.092Z,85.10
2018-08-04T05:45:22.712Z,85.20
2018-08-04T05:47:51.112Z,84.70
2018-08-04T05:52:47.745Z,83.10
2018-08-04T05:55:16.195Z,81.70
2018-08-04T05:57:45.920Z,81.60
2018-08-04T06:00:14.398Z,81.30
2018-08-04T06:02:42.833Z,81.00
2018-08-04T06:05:11.287Z,81.10
2018-08-04T06:07:39.742Z,80.30
2018-08-04T06:10:08.220Z,79.90
2018-08-04T06:15:04.986Z,77.60
2018-08-04T06:17:33.556Z,77.20
2018-08-04T06:22:30.217Z,75.90
2018-08-04T06:24:58.662Z,75.30
2018-08-04T06:27:27.101Z,73.40
2018-08-04T06:29:55.544Z,73.40
2018-08-04T06:32:24.517Z,72.90
2018-08-04T06:34:53.005Z,70.90
2018-08-04T06:37:21.441Z,71.30
2018-08-04T06:39:49.985Z,67.40
2018-08-04T06:42:18.533Z,67.40
2018-08-04T06:44:47.003Z,67.10
2018-08-04T06:47:15.437Z,65.60
2018-08-04T06:49:43.879Z,62.70
2018-08-04T06:52:12.335Z,60.20
2018-08-04T06:54:40.789Z,59.50
2018-08-04T06:57:09.213Z,57.90
2018-08-04T06:59:37.775Z,59.60
2018-08-04T07:02:06.248Z,60.50
2018-08-04T07:04:34.697Z,60.60
2018-08-04T07:07:03.124Z,58.50
2018-08-04T07:09:31.520Z,58.40
2018-08-04T07:11:59.972Z,57.70
2018-08-04T07:14:28.428Z,56.80
2018-08-04T07:16:56.869Z,56.60
2018-08-04T07:19:25.368Z,54.70
2018-08-04T07:21:53.809Z,53.90
2018-08-04T07:24:22.279Z,53.90
2018-08-04T07:26:50.756Z,54.00
2018-08-04T07:29:19.207Z,53.80
2018-08-04T07:31:47.681Z,52.90
2018-08-04T07:34:16.123Z,52.60
2018-08-04T07:36:44.560Z,53.10
2018-08-04T07:41:41.147Z,54.40
2018-08-04T07:44:09.616Z,55.90
2018-08-04T07:46:38.276Z,57.40
2018-08-04T07:49:06.755Z,57.90
2018-08-04T07:51:35.181Z,57.30
2018-08-04T07:54:03.656Z,56.80
2018-08-04T07:56:32.189Z,55.60
2018-08-04T07:59:00.789Z,55.00
2018-08-04T08:01:29.232Z,53.60
2018-08-04T08:03:57.702Z,53.20
2018-08-04T08:06:26.144Z,52.40
2018-08-04T08:08:54.563Z,52.60
2018-08-04T08:11:23.199Z,50.70
2018-08-04T08:13:51.612Z,50.60
2018-08-04T08:16:20.051Z,48.30
2018-08-04T08:18:48.434Z,48.00
2018-08-04T08:21:16.919Z,48.30
2018-08-04T08:23:45.321Z,49.20
2018-08-04T08:26:14.697Z,50.00
2018-08-04T08:28:43.512Z,50.40
2018-08-04T08:31:12.005Z,48.50
2018-08-04T08:33:40.934Z,47.40
2018-08-04T08:36:10.208Z,47.50
2018-08-04T08:38:38.644Z,47.10
2018-08-04T08:41:07.137Z,48.10
2018-08-04T08:43:35.603Z,47.80
2018-08-04T08:46:04.062Z,47.00
2018-08-04T08:48:32.516Z,47.40
2018-08-04T08:51:00.944Z,47.80
2018-08-04T08:53:29.578Z,45.80
2018-08-04T08:55:57.889Z,47.20
2018-08-04T08:58:26.341Z,46.50
2018-08-04T09:00:54.768Z,47.30
2018-08-04T09:03:23.236Z,48.10
2018-08-04T09:05:51.649Z,47.40
2018-08-04T09:08:20.085Z,47.10
2018-08-04T09:13:16.649Z,44.70
2018-08-04T09:15:45.214Z,44.00
2018-08-04T09:18:13.703Z,44.20
2018-08-04T09:20:42.080Z,44.60
2018-08-04T09:23:10.616Z,43.70
2018-08-04T09:25:39.160Z,44.10
2018-08-04T09:28:07.664Z,44.90
2018-08-04T09:30:36.084Z,44.80
2018-08-04T09:33:04.557Z,44.40
2018-08-04T09:35:32.987Z,44.10
2018-08-04T09:38:01.418Z,44.20
2018-08-04T09:40:29.888Z,44.20
2018-08-04T09:45:26.592Z,45.30
2018-08-04T09:47:55.076Z,45.50
2018-08-04T09:50:23.464Z,45.70
2018-08-04T09:55:20.112Z,45.30
2018-08-04T09:57:48.589Z,44.50
2018-08-04T10:00:22.560Z,44.80
2018-08-04T10:02:51.186Z,45.20
2018-08-04T10:07:48.165Z,45.40
2018-08-04T10:10:16.852Z,44.20
2018-08-04T10:12:45.298Z,42.40
2018-08-04T10:15:13.707Z,41.90
2018-08-04T10:17:42.142Z,42.40
2018-08-04T10:20:11.779Z,43.20
2018-08-04T10:22:40.232Z,43.10
2018-08-04T10:25:09.039Z,43.20
2018-08-04T10:27:37.659Z,44.00
2018-08-04T10:30:08.505Z,45.30
2018-08-04T10:32:37.110Z,44.10
2018-08-04T10:35:05.944Z,44.60
2018-08-04T10:40:02.692Z,43.30
2018-08-04T10:42:31.114Z,42.70
2018-08-04T10:44:59.560Z,43.00
2018-08-04T10:47:27.965Z,43.00
2018-08-04T10:49:56.408Z,43.70
2018-08-04T10:52:24.813Z,44.60
2018-08-04T10:54:53.245Z,45.50
2018-08-04T10:59:49.981Z,45.00
2018-08-04T11:04:46.586Z,46.10
2018-08-04T11:07:15.053Z,47.40
2018-08-04T11:09:43.537Z,48.00
2018-08-04T11:12:12.117Z,48.30
2018-08-04T11:17:08.821Z,49.00
2018-08-04T11:19:37.298Z,50.40
2018-08-04T11:22:05.865Z,50.70
2018-08-04T11:24:34.448Z,50.60
2018-08-04T11:27:02.872Z,50.90
2018-08-04T11:29:31.562Z,51.00
2018-08-04T11:32:00.042Z,51.20
2018-08-04T11:34:28.589Z,51.20
2018-08-04T11:36:57.008Z,51.40
2018-08-04T11:39:25.472Z,51.60
2018-08-04T11:41:53.950Z,51.50
2018-08-04T11:44:22.388Z,51.70
2018-08-04T11:46:50.885Z,51.60
2018-08-04T11:49:19.324Z,51.20
2018-08-04T11:51:47.880Z,50.70
2018-08-04T11:54:16.329Z,50.80
2018-08-04T11:56:44.759Z,50.40
2018-08-04T11:59:13.204Z,50.40
2018-08-04T12:01:41.729Z,51.50
2018-08-04T12:04:10.170Z,51.50
2018-08-04T12:06:38.586Z,51.90
2018-08-04T12:09:09.986Z,51.40
2018-08-04T12:11:38.482Z,51.20
2018-08-04T12:14:07.420Z,51.30
2018-08-04T12:16:35.956Z,51.60
2018-08-04T12:19:04.882Z,52.50
2018-08-04T12:21:33.383Z,51.60
2018-08-04T12:24:01.878Z,52.40
2018-08-04T12:26:30.307Z,51.70
2018-08-04T12:28:58.824Z,51.60
2018-08-04T12:31:27.763Z,51.20
2018-08-04T12:33:56.150Z,51.70
2018-08-04T12:36:24.578Z,51.70
2018-08-04T12:38:52.996Z,52.50
2018-08-04T12:41:21.466Z,51.90
2018-08-04T12:43:49.968Z,52.30
2018-08-04T12:46:18.432Z,51.30
2018-08-04T12:51:15.041Z,51.80
2018-08-04T12:53:43.437Z,51.00
2018-08-04T12:56:11.859Z,51.40
2018-08-04T12:58:40.270Z,50.10
2018-08-04T13:01:08.752Z,49.90
2018-08-04T13:03:37.195Z,49.90
2018-08-04T13:06:05.872Z,51.70
2018-08-04T13:08:34.309Z,51.30
2018-08-04T13:11:02.785Z,51.40
2018-08-04T13:13:31.226Z,50.70
2018-08-04T13:15:59.958Z,50.70
2018-08-04T13:18:28.393Z,51.40
2018-08-04T13:20:56.852Z,51.60
2018-08-04T13:23:25.256Z,51.30
2018-08-04T13:25:53.708Z,51.30
2018-08-04T13:28:22.188Z,51.30
2018-08-04T13:30:50.652Z,51.00
2018-08-04T13:33:19.521Z,50.70
2018-08-04T13:35:48.013Z,50.90
2018-08-04T13:38:16.403Z,50.50
2018-08-04T13:40:44.856Z,50.50
2018-08-04T13:43:13.293Z,50.70
2018-08-04T13:45:41.739Z,50.50
2018-08-04T13:48:10.189Z,50.20
2018-08-04T13:50:38.700Z,50.40
2018-08-04T13:53:07.318Z,51.00
2018-08-04T13:58:03.957Z,50.60
2018-08-04T14:00:32.384Z,50.10
2018-08-04T14:03:00.813Z,50.70
2018-08-04T14:05:29.238Z,50.60
2018-08-04T14:07:57.900Z,51.20
2018-08-04T14:10:26.382Z,50.80
2018-08-04T14:12:54.836Z,50.70
2018-08-04T14:15:23.232Z,50.50
2018-08-04T14:22:47.898Z,50.90
2018-08-04T14:25:16.304Z,50.70
2018-08-04T14:27:44.797Z,51.60
2018-08-04T14:30:13.204Z,51.00
2018-08-04T14:32:41.635Z,50.70
2018-08-04T14:35:10.055Z,50.70
2018-08-04T14:37:38.544Z,50.80
2018-08-04T14:40:07.042Z,50.90
2018-08-04T14:42:35.580Z,52.30
2018-08-04T14:45:04.118Z,52.50
2018-08-04T14:47:32.704Z,52.20
2018-08-04T14:50:01.114Z,52.20
2018-08-04T14:54:57.716Z,50.70
2018-08-04T14:57:26.165Z,51.30
2018-08-04T14:59:54.573Z,51.20
2018-08-04T15:02:22.992Z,50.10
2018-08-04T15:04:51.451Z,51.50
2018-08-04T15:07:19.849Z,51.40
2018-08-04T15:09:48.258Z,51.30
2018-08-04T15:12:16.709Z,50.80
2018-08-04T15:14:45.192Z,52.20
2018-08-04T15:17:13.682Z,51.80
2018-08-04T15:19:42.072Z,51.90
2018-08-04T15:22:10.553Z,52.70
2018-08-04T15:24:38.999Z,52.70
2018-08-04T15:27:07.452Z,53.60
2018-08-04T15:32:04.077Z,53.80
2018-08-04T15:34:32.513Z,54.50
2018-08-04T15:37:00.998Z,54.50
2018-08-04T15:39:29.450Z,55.20
2018-08-04T15:41:57.980Z,55.00
2018-08-04T15:44:26.394Z,54.80
2018-08-04T15:46:54.923Z,55.30
2018-08-04T15:49:23.337Z,55.50
2018-08-04T15:51:51.772Z,55.70
2018-08-04T15:54:20.296Z,55.90
2018-08-04T15:56:48.760Z,55.50
2018-08-04T15:59:17.229Z,55.70
2018-08-04T16:01:45.644Z,55.50
2018-08-04T16:04:14.110Z,55.50
2018-08-04T16:06:42.649Z,55.70
2018-08-04T16:09:12.046Z,56.00
2018-08-04T16:11:41.423Z,55.60
2018-08-04T16:14:10.604Z,55.60
2018-08-04T16:16:42.053Z,55.50
2018-08-04T16:19:10.603Z,56.80
2018-08-04T16:21:38.997Z,57.50
2018-08-04T16:24:07.474Z,56.70
2018-08-04T16:26:35.941Z,55.80
2018-08-04T16:29:04.460Z,55.60
2018-08-04T16:31:32.921Z,55.70
2018-08-04T16:34:01.362Z,56.00
2018-08-04T16:36:29.817Z,56.10
2018-08-04T16:38:58.261Z,55.50
2018-08-04T16:41:26.703Z,55.50
2018-08-04T16:43:55.221Z,55.30
2018-08-04T16:46:23.653Z,55.50
2018-08-04T16:48:52.277Z,55.20
2018-08-04T16:51:20.701Z,55.20
2018-08-04T16:53:49.254Z,55.00
2018-08-04T16:56:17.689Z,55.70
2018-08-04T16:58:46.131Z,55.70
2018-08-04T17:01:14.547Z,55.80
2018-08-04T17:03:43.052Z,55.70
2018-08-04T17:06:11.507Z,55.60
2018-08-04T17:08:39.994Z,55.60
2018-08-04T17:11:08.429Z,55.50
2018-08-04T17:13:36.892Z,55.70
2018-08-04T17:16:05.386Z,56.60
2018-08-04T17:18:33.958Z,57.20
2018-08-04T17:23:30.628Z,57.20
2018-08-04T17:25:59.042Z,56.70
2018-08-04T17:28:27.462Z,56.60
2018-08-04T17:30:55.900Z,56.70
2018-08-04T17:33:24.336Z,57.00
2018-08-04T17:35:53.225Z,59.50
2018-08-04T17:38:21.753Z,59.80
2018-08-04T17:40:50.171Z,59.50
2018-08-04T17:43:18.612Z,59.80
2018-08-04T17:45:47.115Z,60.10
2018-08-04T17:48:15.612Z,60.60
2018-08-04T17:50:44.068Z,61.00
2018-08-04T17:53:12.524Z,61.10
2018-08-04T17:55:41.068Z,61.30
2018-08-04T17:58:09.554Z,61.60
2018-08-04T18:00:38.010Z,61.90
2018-08-04T18:05:34.641Z,62.70
2018-08-04T18:08:03.165Z,63.10
2018-08-04T18:10:31.660Z,63.50
2018-08-04T18:13:00.155Z,63.90
2018-08-04T18:15:28.829Z,64.30
2018-08-04T18:17:57.230Z,64.50
2018-08-04T18:20:25.695Z,64.60
2018-08-04T18:22:54.139Z,64.70
2018-08-04T18:25:22.621Z,64.70
2018-08-04T18:27:51.086Z,64.70
2018-08-04T18:30:19.557Z,64.80
2018-08-04T18:32:48.172Z,64.70
2018-08-04T18:35:16.705Z,64.80
2018-08-04T18:37:45.174Z,64.70
2018-08-04T18:40:13.597Z,64.80
2018-08-04T18:42:42.027Z,65.10
2018-08-04T18:45:10.267Z,64.70
2018-08-04T18:47:38.800Z,64.70
2018-08-04T18:50:07.354Z,64.90
2018-08-04T18:52:36.022Z,65.70
2018-08-04T18:55:04.653Z,65.70
2018-08-04T18:57:33.121Z,66.10
2018-08-04T19:00:01.612Z,66.50
2018-08-04T19:02:30.232Z,66.90
2018-08-04T19:04:58.713Z,67.30
2018-08-04T19:09:55.322Z,67.70
2018-08-04T19:12:23.733Z,68.00
2018-08-04T19:14:52.182Z,68.30
2018-08-04T19:17:20.572Z,68.30
2018-08-04T19:19:49.037Z,68.70
2018-08-04T19:22:17.499Z,68.80
2018-08-04T19:24:45.898Z,68.90
2018-08-04T19:27:14.349Z,69.10
2018-08-04T19:29:42.738Z,69.40
2018-08-04T19:32:11.276Z,69.50
2018-08-04T19:34:39.749Z,69.60
2018-08-04T19:37:08.325Z,69.70
2018-08-04T19:39:36.760Z,69.70
2018-08-04T19:42:05.220Z,69.80
2018-08-04T19:44:33.704Z,69.90
2018-08-04T19:47:02.158Z,69.90
2018-08-04T19:51:58.736Z,70.20
2018-08-04T19:56:56.321Z,70.50
2018-08-04T19:59:24.795Z,70.80
2018-08-04T20:01:53.233Z,70.40
2018-08-04T20:04:21.701Z,70.60
2018-08-04T20:09:18.234Z,70.90
2018-08-04T20:11:46.669Z,71.10
2018-08-04T20:14:15.103Z,71.40
2018-08-04T20:16:43.545Z,71.40
2018-08-04T20:19:11.979Z,71.70
2018-08-04T20:21:40.569Z,71.90
2018-08-04T20:24:08.993Z,71.60
2018-08-04T20:26:38.596Z,71.80
2018-08-04T20:29:07.043Z,71.80
2018-08-04T20:31:35.516Z,71.80
2018-08-04T20:34:03.980Z,71.90
2018-08-04T20:36:32.505Z,72.00
2018-08-04T20:39:00.994Z,72.30
2018-08-04T20:41:29.442Z,72.30
2018-08-04T20:43:57.880Z,72.30
2018-08-04T20:46:26.371Z,72.40
2018-08-04T20:48:54.925Z,72.40
2018-08-04T20:51:23.334Z,72.40
2018-08-04T20:53:51.787Z,72.80
2018-08-04T20:56:20.197Z,73.10
2018-08-04T20:58:48.645Z,73.10
2018-08-04T21:01:28.249Z,73.70
2018-08-04T21:03:56.697Z,73.80
2018-08-04T21:06:25.200Z,73.90
2018-08-04T21:08:53.682Z,74.00
2018-08-04T21:11:22.128Z,74.00
2018-08-04T21:13:50.593Z,74.10
2018-08-04T21:16:19.092Z,74.50
2018-08-04T21:18:47.549Z,74.60
2018-08-04T21:21:15.972Z,74.60
2018-08-04T21:23:44.417Z,74.70
2018-08-04T21:26:12.824Z,74.80
2018-08-04T21:28:41.256Z,74.80
2018-08-04T21:31:09.668Z,74.90
2018-08-04T21:33:38.231Z,75.10
2018-08-04T21:36:06.659Z,75.10
2018-08-04T21:38:35.137Z,75.10
2018-08-04T21:41:03.608Z,75.10
2018-08-04T21:46:00.452Z,75.50
2018-08-04T21:48:28.906Z,75.60
2018-08-04T21:50:57.372Z,75.80
2018-08-04T21:53:25.807Z,75.80
2018-08-04T21:55:54.207Z,75.80
2018-08-04T21:58:22.681Z,75.90
2018-08-04T22:00:56.281Z,76.20
2018-08-04T22:03:24.746Z,76.70
2018-08-04T22:05:53.237Z,76.90
2018-08-04T22:08:33.065Z,76.90
2018-08-04T22:11:02.054Z,76.80
2018-08-04T22:13:30.637Z,76.60
2018-08-04T22:15:59.073Z,76.30
2018-08-04T22:18:27.537Z,76.20
2018-08-04T22:20:56.045Z,76.50
2018-08-04T22:23:24.449Z,76.30
2018-08-04T22:25:52.965Z,76.50
2018-08-04T22:28:21.479Z,76.60
2018-08-04T22:33:18.205Z,76.60
2018-08-04T22:35:46.758Z,76.70
2018-08-04T22:38:15.157Z,76.70
2018-08-04T22:40:43.628Z,76.70
2018-08-04T22:43:12.070Z,76.80
2018-08-04T22:46:07.723Z,77.20
2018-08-04T22:48:36.164Z,77.10
2018-08-04T22:51:04.618Z,77.40
2018-08-04T22:53:33.077Z,77.50
2018-08-04T22:56:01.554Z,77.60
2018-08-04T22:58:30.000Z,77.60
2018-08-04T23:00:58.632Z,77.70
2018-08-04T23:03:27.124Z,77.70
2018-08-04T23:05:55.608Z,77.70
2018-08-04T23:08:24.119Z,77.80
2018-08-04T23:10:52.577Z,78.10
2018-08-04T23:13:21.045Z,78.30
2018-08-04T23:15:49.559Z,78.20
2018-08-04T23:18:18.017Z,78.60
2018-08-04T23:20:46.493Z,78.90
2018-08-04T23:23:14.912Z,79.20
2018-08-04T23:25:43.357Z,79.90
2018-08-04T23:28:11.770Z,80.40
2018-08-04T23:30:40.256Z,80.50
2018-08-04T23:33:08.687Z,80.40
2018-08-04T23:35:37.129Z,80.40
2018-08-04T23:38:05.546Z,80.20
2018-08-04T23:40:33.974Z,80.10
2018-08-04T23:45:31.540Z,80.00
2018-08-04T23:47:59.984Z,80.00
2018-08-04T23:50:28.461Z,80.10
2018-08-04T23:52:56.942Z,80.10
2018-08-04T23:55:25.404Z,80.00
2018-08-04T23:57:53.862Z,80.00
